Time;durP1;ratioP1;P1;durP2;ratioP2;P2;SDS_P1;SDS_P2;PMS_P1;PMS_P2;Temp;Humidity;BMP_temperature;BMP_pressure;BME280_temperature;BME280_humidity;BME280_pressure;Samples;Min_cycle;Max_cycle;Signal;HPM_P1;HPM_P2
2024/02/25 00:01:28;;;;;;;2.67;1.07;;;5.20;99.90;;;;;;6213680;23;20292;-74
2024/02/25 00:03:54;;;;;;;2.30;1.20;;;5.20;99.90;;;;;;6212836;23;20087;-74
2024/02/25 00:06:19;;;;;;;2.13;1.30;;;5.20;99.90;;;;;;6214655;23;20001;-74
2024/02/25 00:08:45;;;;;;;2.80;1.47;;;5.20;99.90;;;;;;6215426;23;20100;-74
2024/02/25 00:11:10;;;;;;;2.43;1.30;;;5.20;99.90;;;;;;6215152;23;20032;-74
2024/02/25 00:13:37;;;;;;;3.10;1.63;;;5.30;99.90;;;;;;6214713;23;20082;-74
2024/02/25 00:16:03;;;;;;;2.87;1.30;;;5.20;99.90;;;;;;6214623;23;20012;-74
2024/02/25 00:18:28;;;;;;;2.47;1.70;;;5.20;99.90;;;;;;6215257;23;20012;-74
2024/02/25 00:20:54;;;;;;;2.67;1.50;;;5.20;99.90;;;;;;6214936;23;19997;-74
2024/02/25 00:23:19;;;;;;;2.90;1.57;;;5.20;99.90;;;;;;6214450;23;19997;-74
2024/02/25 00:25:45;;;;;;;3.63;1.63;;;5.30;99.90;;;;;;6214572;23;20027;-74
2024/02/25 00:28:10;;;;;;;2.77;1.77;;;5.30;99.90;;;;;;6214786;23;20072;-74
2024/02/25 00:30:36;;;;;;;3.27;1.43;;;5.30;99.90;;;;;;6214818;23;20011;-74
2024/02/25 00:33:02;;;;;;;5.20;1.70;;;5.30;99.90;;;;;;6214930;23;20000;-74
2024/02/25 00:35:27;;;;;;;3.03;1.70;;;5.30;99.90;;;;;;6214480;23;20002;-75
2024/02/25 00:37:53;;;;;;;2.73;1.47;;;5.30;99.90;;;;;;6215029;23;20012;-74
2024/02/25 00:40:18;;;;;;;2.70;1.33;;;5.20;99.90;;;;;;6215070;23;20461;-74
2024/02/25 00:42:44;;;;;;;4.83;1.73;;;5.20;99.90;;;;;;6214447;23;19993;-74
2024/02/25 00:45:09;;;;;;;2.70;1.50;;;5.20;99.90;;;;;;6213852;23;20007;-74
2024/02/25 00:47:35;;;;;;;3.87;1.33;;;5.20;99.90;;;;;;6214555;23;20009;-74
2024/02/25 00:50:02;;;;;;;4.70;2.00;;;5.20;99.90;;;;;;6215184;23;20051;-74
2024/02/25 00:52:31;;;;;;;6.07;1.80;;;5.20;99.90;;;;;;6214714;23;20095;-74
2024/02/25 00:54:57;;;;;;;7.33;2.50;;;5.20;99.90;;;;;;6213626;23;20001;-74
2024/02/25 00:57:23;;;;;;;6.57;2.33;;;5.20;99.90;;;;;;6214546;23;20001;-74
2024/02/25 00:59:48;;;;;;;4.07;2.27;;;5.20;99.90;;;;;;6214779;23;20026;-75
2024/02/25 01:02:14;;;;;;;4.40;2.13;;;5.20;99.90;;;;;;6214801;23;20050;-75
2024/02/25 01:04:40;;;;;;;5.17;2.10;;;5.20;99.90;;;;;;6213631;23;20008;-75
2024/02/25 01:07:05;;;;;;;3.50;1.70;;;5.10;99.90;;;;;;6214965;23;20007;-74
2024/02/25 01:09:31;;;;;;;3.90;1.63;;;5.10;99.90;;;;;;6214714;23;20064;-74
2024/02/25 01:11:57;;;;;;;3.67;2.10;;;5.10;99.90;;;;;;6214556;23;20293;-74
2024/02/25 01:14:24;;;;;;;6.10;2.07;;;5.10;99.90;;;;;;6214091;23;20058;-74
2024/02/25 01:16:50;;;;;;;3.03;1.70;;;5.10;99.90;;;;;;6213455;23;20019;-74
2024/02/25 01:19:17;;;;;;;3.33;1.60;;;5.00;99.90;;;;;;6214900;23;20001;-74
2024/02/25 01:21:43;;;;;;;5.40;1.50;;;5.00;99.90;;;;;;6214179;23;20127;-74
2024/02/25 01:24:09;;;;;;;5.13;1.40;;;5.00;99.90;;;;;;6213938;23;20009;-74
2024/02/25 01:26:40;;;;;;;3.87;1.30;;;5.00;99.90;;;;;;6214437;23;20412;-74
2024/02/25 01:29:07;;;;;;;2.30;1.40;;;5.00;99.90;;;;;;6214686;23;20304;-74
2024/02/25 01:31:34;;;;;;;4.13;1.70;;;4.90;99.90;;;;;;6214686;23;20011;-74
2024/02/25 01:33:59;;;;;;;3.30;1.53;;;4.90;99.90;;;;;;6214295;23;20358;-74
2024/02/25 01:36:25;;;;;;;2.20;1.53;;;4.90;99.90;;;;;;6214080;23;20088;-74
2024/02/25 01:38:50;;;;;;;3.73;2.07;;;4.90;99.90;;;;;;6214611;23;20031;-74
2024/02/25 01:41:17;;;;;;;8.23;2.30;;;4.90;99.90;;;;;;6214695;23;20509;-74
2024/02/25 01:43:42;;;;;;;4.60;2.40;;;4.90;99.90;;;;;;6213905;23;20064;-74
2024/02/25 01:46:08;;;;;;;3.70;2.20;;;4.80;99.90;;;;;;6213804;23;20005;-75
2024/02/25 01:48:33;;;;;;;3.40;2.20;;;4.80;99.90;;;;;;6214205;23;20004;-74
2024/02/25 01:51:00;;;;;;;3.93;1.93;;;4.80;99.90;;;;;;6214119;23;20486;-74
2024/02/25 01:53:26;;;;;;;5.93;2.90;;;4.70;99.90;;;;;;6214328;23;20008;-74
2024/02/25 01:55:54;;;;;;;4.73;2.70;;;4.70;99.90;;;;;;6213378;23;20035;-74
2024/02/25 01:58:19;;;;;;;3.77;2.17;;;4.70;99.90;;;;;;6214199;23;20075;-74
2024/02/25 02:00:46;;;;;;;4.50;2.33;;;4.70;99.90;;;;;;6214046;23;20082;-74
2024/02/25 02:03:11;;;;;;;3.37;2.00;;;4.70;99.90;;;;;;6214053;23;20004;-74
2024/02/25 02:05:37;;;;;;;2.80;1.90;;;4.70;99.90;;;;;;6213703;23;20028;-74
2024/02/25 02:08:03;;;;;;;3.47;2.10;;;4.60;99.90;;;;;;6214037;23;20025;-75
2024/02/25 02:10:29;;;;;;;3.27;1.87;;;4.70;99.90;;;;;;6214426;23;20000;-75
2024/02/25 02:12:55;;;;;;;2.43;1.70;;;4.60;99.90;;;;;;6213927;23;20076;-74
2024/02/25 02:15:20;;;;;;;3.63;1.93;;;4.60;99.90;;;;;;6213172;23;20036;-74
2024/02/25 02:17:46;;;;;;;2.90;1.77;;;4.60;99.90;;;;;;6212696;23;20016;-74
2024/02/25 02:20:18;;;;;;;2.50;1.67;;;4.60;99.90;;;;;;6214053;23;20130;-74
2024/02/25 02:22:44;;;;;;;4.07;1.97;;;4.50;99.90;;;;;;6213667;23;20010;-74
2024/02/25 02:25:10;;;;;;;3.80;2.17;;;4.50;99.90;;;;;;6213234;23;20005;-74
2024/02/25 02:27:37;;;;;;;5.47;2.50;;;4.50;99.90;;;;;;6213393;23;20000;-74
2024/02/25 02:30:03;;;;;;;4.00;2.60;;;4.50;99.90;;;;;;6213833;23;20051;-74
2024/02/25 02:32:29;;;;;;;2.43;1.93;;;4.40;99.90;;;;;;6213744;23;19997;-74
2024/02/25 02:34:54;;;;;;;3.33;2.00;;;4.40;99.90;;;;;;6213505;23;20009;-74
2024/02/25 02:37:20;;;;;;;4.73;1.83;;;4.40;99.90;;;;;;6213814;23;20339;-74
2024/02/25 02:39:45;;;;;;;5.50;2.23;;;4.40;99.90;;;;;;6214039;23;20454;-74
2024/02/25 02:42:11;;;;;;;3.60;2.10;;;4.30;99.90;;;;;;6213022;23;20007;-74
2024/02/25 02:44:37;;;;;;;4.10;2.10;;;4.30;99.90;;;;;;6212820;23;20004;-74
2024/02/25 02:47:03;;;;;;;4.67;2.17;;;4.30;99.90;;;;;;6214057;23;20105;-74
2024/02/25 02:50:03;;;;;;;3.13;1.87;;;4.30;99.90;;;;;;6213276;23;20049;-74
2024/02/25 02:52:28;;;;;;;7.00;2.20;;;4.30;99.90;;;;;;6210377;23;20439;-74
2024/02/25 02:54:54;;;;;;;5.13;1.80;;;4.30;99.90;;;;;;6212744;23;20019;-74
2024/02/25 02:57:20;;;;;;;4.20;2.03;;;4.30;99.90;;;;;;6213662;23;20020;-74
2024/02/25 02:59:46;;;;;;;3.83;2.10;;;4.20;99.90;;;;;;6213246;23;20390;-75
2024/02/25 03:02:12;;;;;;;5.13;2.10;;;4.20;99.90;;;;;;6213776;23;20096;-74
2024/02/25 03:04:38;;;;;;;4.40;2.20;;;4.20;99.90;;;;;;6212906;23;20400;-75
2024/02/25 03:07:04;;;;;;;2.73;1.73;;;4.20;99.90;;;;;;6213360;23;20011;-74
2024/02/25 03:09:29;;;;;;;3.97;1.73;;;4.20;99.90;;;;;;6213652;23;20076;-74
2024/02/25 03:11:55;;;;;;;2.10;1.30;;;4.10;99.90;;;;;;6213661;23;20028;-75
2024/02/25 03:14:21;;;;;;;2.70;1.60;;;4.10;99.90;;;;;;6213341;23;20009;-74
2024/02/25 03:16:47;;;;;;;3.80;2.23;;;4.10;99.90;;;;;;6213384;23;20036;-74
2024/02/25 03:19:13;;;;;;;3.93;2.17;;;4.10;99.90;;;;;;6213581;23;20004;-74
2024/02/25 03:21:43;;;;;;;4.23;2.30;;;4.10;99.90;;;;;;6213863;23;20482;-74
2024/02/25 03:24:10;;;;;;;3.27;1.97;;;4.00;99.90;;;;;;6213212;23;20001;-74
2024/02/25 03:26:36;;;;;;;3.60;1.90;;;4.00;99.90;;;;;;6213094;23;20607;-74
2024/02/25 03:29:01;;;;;;;2.63;1.80;;;4.00;99.90;;;;;;6213735;23;20011;-74
2024/02/25 03:31:27;;;;;;;3.27;2.00;;;4.00;99.90;;;;;;6213982;23;20008;-74
2024/02/25 03:33:52;;;;;;;3.17;1.97;;;4.00;99.90;;;;;;6213236;23;20092;-74
2024/02/25 03:36:18;;;;;;;3.47;1.97;;;4.00;99.90;;;;;;6213112;23;20058;-74
2024/02/25 03:38:43;;;;;;;3.20;1.97;;;4.00;99.90;;;;;;6213368;23;20001;-74
2024/02/25 03:41:09;;;;;;;3.60;1.90;;;4.00;99.90;;;;;;6214965;23;20000;-74
2024/02/25 03:43:34;;;;;;;3.30;2.07;;;4.00;99.90;;;;;;6215517;23;20023;-74
2024/02/25 03:46:00;;;;;;;5.03;1.80;;;4.00;99.90;;;;;;6215171;23;20012;-74
2024/02/25 03:48:25;;;;;;;2.67;1.70;;;4.00;99.90;;;;;;6215522;23;20055;-74
2024/02/25 03:50:51;;;;;;;3.43;2.03;;;4.00;99.90;;;;;;6215423;23;19997;-74
2024/02/25 03:53:16;;;;;;;2.93;1.80;;;4.00;99.90;;;;;;6215473;23;20004;-74
2024/02/25 03:55:42;;;;;;;3.97;1.90;;;4.00;99.90;;;;;;6214697;23;20006;-74
2024/02/25 03:58:07;;;;;;;3.60;1.70;;;4.00;99.90;;;;;;6215651;23;20032;-74
2024/02/25 04:00:33;;;;;;;4.80;2.20;;;4.00;99.90;;;;;;6215798;23;20008;-74
2024/02/25 04:02:58;;;;;;;5.30;2.70;;;4.00;99.90;;;;;;6215533;23;20000;-74
2024/02/25 04:05:24;;;;;;;3.80;2.10;;;4.00;99.90;;;;;;6215042;23;20339;-74
2024/02/25 04:07:49;;;;;;;4.03;2.30;;;4.00;99.90;;;;;;6215776;23;20320;-74
2024/02/25 04:10:15;;;;;;;2.83;1.77;;;4.00;99.90;;;;;;6215874;23;20064;-74
2024/02/25 04:12:40;;;;;;;2.37;1.80;;;4.00;99.90;;;;;;6215369;23;20443;-74
2024/02/25 04:15:07;;;;;;;4.73;1.90;;;4.00;99.90;;;;;;6214730;23;20083;-74
2024/02/25 04:17:33;;;;;;;3.63;2.13;;;4.00;99.90;;;;;;6214894;23;20017;-74
2024/02/25 04:20:00;;;;;;;3.27;1.90;;;4.00;99.90;;;;;;6215751;23;20001;-74
2024/02/25 04:22:26;;;;;;;4.90;2.10;;;4.00;99.90;;;;;;6215052;23;20111;-74
2024/02/25 04:24:51;;;;;;;5.63;2.20;;;4.00;99.90;;;;;;6214856;23;20031;-74
2024/02/25 04:27:18;;;;;;;3.17;2.00;;;4.00;99.90;;;;;;6215466;23;20324;-74
2024/02/25 04:29:44;;;;;;;3.77;2.40;;;4.00;99.90;;;;;;6215392;23;20092;-74
2024/02/25 04:32:10;;;;;;;4.87;2.40;;;4.00;99.90;;;;;;6214890;23;20430;-74
2024/02/25 04:34:36;;;;;;;3.20;2.23;;;4.00;99.90;;;;;;6214630;23;20020;-74
2024/02/25 04:37:03;;;;;;;3.57;2.30;;;4.00;99.90;;;;;;6215408;23;20000;-74
2024/02/25 04:39:29;;;;;;;5.37;2.40;;;4.00;99.90;;;;;;6215122;23;20024;-75
2024/02/25 04:41:54;;;;;;;7.73;2.50;;;4.00;99.90;;;;;;6214560;23;20004;-74
2024/02/25 04:44:20;;;;;;;4.10;2.80;;;4.00;99.90;;;;;;6214192;23;20005;-74
2024/02/25 04:46:45;;;;;;;4.87;3.27;;;4.00;99.90;;;;;;6214760;23;20004;-74
2024/02/25 04:49:11;;;;;;;3.17;2.37;;;4.00;99.90;;;;;;6215406;23;20004;-74
2024/02/25 04:51:37;;;;;;;5.37;2.70;;;4.00;99.90;;;;;;6214730;23;20086;-74
2024/02/25 04:54:03;;;;;;;5.27;2.60;;;4.00;99.90;;;;;;6213740;23;20000;-74
2024/02/25 04:56:28;;;;;;;6.03;2.80;;;4.00;99.90;;;;;;6215212;23;20000;-74
2024/02/25 04:58:54;;;;;;;3.63;2.60;;;3.90;99.90;;;;;;6214985;23;20043;-74
2024/02/25 05:01:20;;;;;;;5.07;2.70;;;3.90;99.90;;;;;;6214524;23;20031;-74
2024/02/25 05:03:46;;;;;;;3.73;2.60;;;3.90;99.90;;;;;;6214581;23;20028;-74
2024/02/25 05:06:13;;;;;;;5.33;2.60;;;3.90;99.90;;;;;;6214583;23;19997;-74
2024/02/25 05:08:38;;;;;;;6.40;2.73;;;3.90;99.90;;;;;;6215095;23;20374;-74
2024/02/25 05:11:04;;;;;;;4.50;2.80;;;3.80;99.90;;;;;;6214341;23;19996;-74
2024/02/25 05:13:30;;;;;;;5.27;3.27;;;3.80;99.90;;;;;;6214890;23;20490;-74
2024/02/25 05:15:55;;;;;;;9.33;4.00;;;3.90;99.90;;;;;;6214273;23;20008;-75
2024/02/25 05:18:21;;;;;;;6.47;3.47;;;3.80;99.90;;;;;;6215142;23;20005;-74
2024/02/25 05:20:47;;;;;;;6.93;3.60;;;3.80;99.90;;;;;;6214620;23;20038;-75
2024/02/25 05:23:13;;;;;;;8.43;3.70;;;3.80;99.90;;;;;;6214561;23;20075;-74
2024/02/25 05:25:38;;;;;;;11.47;4.60;;;3.80;99.90;;;;;;6213869;23;20000;-74
2024/02/25 05:28:04;;;;;;;6.17;3.60;;;3.80;99.90;;;;;;6214772;23;20001;-74
2024/02/25 05:30:30;;;;;;;6.83;3.57;;;3.80;99.90;;;;;;6214421;23;20346;-74
2024/02/25 05:32:55;;;;;;;7.43;4.37;;;3.80;99.90;;;;;;6214820;23;20000;-74
2024/02/25 05:35:21;;;;;;;5.80;3.30;;;3.70;99.90;;;;;;6213857;23;20645;-75
2024/02/25 05:37:47;;;;;;;7.63;3.53;;;3.80;99.90;;;;;;6214142;23;20005;-74
2024/02/25 05:40:13;;;;;;;14.33;7.67;;;3.70;99.90;;;;;;6214453;23;20005;-74
2024/02/25 05:42:38;;;;;;;22.50;10.50;;;3.70;99.90;;;;;;6214011;23;20004;-74
2024/02/25 05:45:05;;;;;;;20.40;9.93;;;3.70;99.90;;;;;;6213745;23;20058;-74
2024/02/25 05:47:30;;;;;;;15.67;7.67;;;3.70;99.90;;;;;;6214118;23;20004;-74
2024/02/25 05:49:57;;;;;;;12.93;6.90;;;3.70;99.90;;;;;;6214639;23;20011;-74
2024/02/25 05:52:22;;;;;;;13.13;5.70;;;3.70;99.90;;;;;;6214249;23;20023;-75
2024/02/25 05:54:48;;;;;;;10.00;4.87;;;3.60;99.90;;;;;;6213691;23;20420;-74
2024/02/25 05:57:13;;;;;;;10.63;5.70;;;3.70;99.90;;;;;;6213896;23;20081;-74
2024/02/25 05:59:39;;;;;;;12.07;5.70;;;3.60;99.90;;;;;;6214459;23;20374;-75
2024/02/25 06:02:04;;;;;;;11.33;4.10;;;3.60;99.90;;;;;;6214002;23;20004;-75
2024/02/25 06:04:30;;;;;;;9.00;3.77;;;3.60;99.90;;;;;;6213607;23;20446;-75
2024/02/25 06:06:56;;;;;;;6.93;3.57;;;3.60;99.90;;;;;;6214173;23;20005;-74
2024/02/25 06:09:21;;;;;;;9.60;4.03;;;3.60;99.90;;;;;;6214139;23;20491;-70
2024/02/25 06:11:48;;;;;;;11.70;4.60;;;3.60;99.90;;;;;;6213875;23;20067;-69
2024/02/25 06:14:14;;;;;;;7.20;3.63;;;3.50;99.90;;;;;;6212957;23;19997;-75
2024/02/25 06:16:40;;;;;;;5.00;2.60;;;3.50;99.90;;;;;;6213588;23;20028;-74
2024/02/25 06:19:06;;;;;;;5.13;2.80;;;3.50;99.90;;;;;;6214316;23;19997;-75
2024/02/25 06:21:32;;;;;;;6.23;2.97;;;3.50;99.90;;;;;;6214037;23;20044;-75
2024/02/25 06:23:57;;;;;;;4.50;2.60;;;3.50;99.90;;;;;;6213786;23;20013;-74
2024/02/25 06:26:23;;;;;;;3.67;2.33;;;3.50;99.90;;;;;;6213665;23;20423;-74
2024/02/25 06:28:49;;;;;;;4.73;2.57;;;3.40;99.90;;;;;;6214117;23;20079;-74
2024/02/25 06:31:14;;;;;;;4.17;2.60;;;3.50;99.90;;;;;;6213638;23;20092;-74
2024/02/25 06:33:40;;;;;;;4.37;2.27;;;3.40;99.90;;;;;;6213622;23;20122;-75
2024/02/25 06:36:06;;;;;;;3.40;2.03;;;3.40;99.90;;;;;;6212805;23;20116;-75
2024/02/25 06:38:32;;;;;;;3.37;2.20;;;3.40;99.90;;;;;;6213558;23;20007;-75
2024/02/25 06:40:58;;;;;;;5.80;2.30;;;3.40;99.90;;;;;;6213483;23;20386;-75
2024/02/25 06:43:24;;;;;;;4.47;2.67;;;3.30;99.90;;;;;;6213025;23;20008;-74
2024/02/25 06:45:51;;;;;;;3.77;2.20;;;3.30;99.90;;;;;;6211958;23;20005;-74
2024/02/25 06:48:17;;;;;;;3.13;2.43;;;3.30;99.90;;;;;;6212846;23;20012;-74
2024/02/25 06:50:43;;;;;;;4.60;2.70;;;3.30;99.90;;;;;;6213001;23;20000;-74
2024/02/25 06:53:08;;;;;;;3.70;2.20;;;3.30;99.90;;;;;;6213845;23;20058;-74
2024/02/25 06:55:33;;;;;;;3.27;2.10;;;3.30;99.90;;;;;;6212775;23;20043;-74
2024/02/25 06:57:59;;;;;;;3.77;2.17;;;3.30;99.90;;;;;;6213412;23;20001;-74
2024/02/25 07:00:25;;;;;;;4.97;2.33;;;3.30;99.90;;;;;;6213594;23;20276;-74
2024/02/25 07:02:54;;;;;;;4.40;2.20;;;3.30;99.90;;;;;;6213440;23;20485;-77
2024/02/25 07:05:20;;;;;;;4.67;2.30;;;3.30;99.90;;;;;;6212205;23;20067;-74
2024/02/25 07:07:46;;;;;;;6.77;2.60;;;3.30;99.90;;;;;;6213131;23;20001;-74
2024/02/25 07:10:12;;;;;;;4.07;2.57;;;3.40;99.90;;;;;;6213384;23;20058;-76
2024/02/25 07:12:37;;;;;;;6.07;2.70;;;3.40;99.90;;;;;;6213018;23;20005;-76
2024/02/25 07:15:04;;;;;;;3.13;2.30;;;3.40;99.90;;;;;;6211786;23;20390;-77
2024/02/25 07:17:29;;;;;;;7.80;2.83;;;3.40;99.90;;;;;;6211415;23;20062;-77
2024/02/25 07:19:55;;;;;;;4.37;2.73;;;3.40;99.90;;;;;;6209824;23;20008;-77
2024/02/25 07:22:21;;;;;;;3.60;2.33;;;3.40;99.90;;;;;;6209930;23;20051;-77
2024/02/25 07:24:46;;;;;;;4.90;2.60;;;3.40;99.90;;;;;;6208352;23;20004;-77
2024/02/25 07:27:12;;;;;;;4.10;2.40;;;3.40;99.90;;;;;;6211511;23;20312;-77
2024/02/25 07:29:37;;;;;;;3.50;2.20;;;3.40;99.90;;;;;;6210893;23;20008;-77
2024/02/25 07:32:04;;;;;;;4.93;3.00;;;3.40;99.90;;;;;;6211960;23;20107;-77
2024/02/25 07:34:30;;;;;;;3.60;2.30;;;3.40;99.90;;;;;;6211953;23;20325;-77
2024/02/25 07:36:56;;;;;;;3.53;2.17;;;3.40;99.90;;;;;;6212180;23;20005;-77
2024/02/25 07:39:21;;;;;;;4.53;1.80;;;3.40;99.90;;;;;;6213283;23;20005;-77
2024/02/25 07:41:49;;;;;;;3.87;2.37;;;3.40;99.90;;;;;;6213247;23;20020;-77
2024/02/25 07:44:14;;;;;;;4.03;1.97;;;3.40;99.90;;;;;;6213130;23;20020;-83
2024/02/25 07:46:40;;;;;;;5.07;2.10;;;3.40;99.90;;;;;;6218242;23;20416;-80
2024/02/25 07:49:06;;;;;;;3.97;2.53;;;3.40;99.90;;;;;;6223898;23;20004;-79
2024/02/25 07:51:35;;;;;;;4.43;2.50;;;3.50;99.90;;;;;;6205888;23;20033;-76
2024/02/25 07:54:01;;;;;;;5.43;3.03;;;3.60;99.90;;;;;;6211052;23;20489;-77
2024/02/25 07:56:27;;;;;;;5.07;2.60;;;3.60;99.90;;;;;;6211341;23;20012;-76
2024/02/25 07:58:53;;;;;;;3.70;2.23;;;3.60;99.90;;;;;;6211411;23;20020;-77
2024/02/25 08:01:18;;;;;;;7.13;2.50;;;3.70;99.90;;;;;;6210757;23;20005;-77
2024/02/25 08:03:44;;;;;;;7.47;2.87;;;3.70;99.90;;;;;;6210662;23;20498;-76
2024/02/25 08:06:10;;;;;;;5.67;2.40;;;3.70;99.90;;;;;;6209708;23;20035;-75
2024/02/25 08:08:36;;;;;;;3.50;2.40;;;3.80;99.90;;;;;;6211651;23;20047;-75
2024/02/25 08:11:01;;;;;;;4.87;2.27;;;3.80;99.90;;;;;;6209633;23;20008;-76
2024/02/25 08:13:27;;;;;;;4.67;2.10;;;3.80;99.90;;;;;;6212527;23;20151;-76
2024/02/25 08:15:52;;;;;;;3.63;1.97;;;3.90;99.90;;;;;;6210397;23;20008;-75
2024/02/25 08:18:18;;;;;;;5.17;2.30;;;3.90;99.90;;;;;;6211892;23;20011;-75
2024/02/25 08:20:44;;;;;;;2.90;1.83;;;3.90;99.90;;;;;;6211731;23;20035;-75
2024/02/25 08:23:10;;;;;;;6.07;2.03;;;4.00;99.90;;;;;;6211990;23;20440;-75
2024/02/25 08:25:35;;;;;;;5.20;1.77;;;4.10;99.90;;;;;;6211261;23;20031;-76
2024/02/25 08:28:01;;;;;;;5.17;2.27;;;4.40;99.90;;;;;;6213412;23;20004;-76
2024/02/25 08:30:26;;;;;;;3.33;1.63;;;4.50;99.90;;;;;;6213944;23;20004;-75
2024/02/25 08:32:52;;;;;;;2.83;1.80;;;4.80;99.90;;;;;;6214195;23;20067;-76
2024/02/25 08:35:18;;;;;;;2.67;1.60;;;5.10;99.90;;;;;;6213132;23;20032;-75
2024/02/25 08:37:44;;;;;;;3.37;1.77;;;5.30;99.90;;;;;;6213427;23;20016;-76
2024/02/25 08:40:10;;;;;;;4.43;1.50;;;5.60;99.90;;;;;;6214101;23;20083;-76
2024/02/25 08:42:35;;;;;;;4.43;1.43;;;5.90;99.90;;;;;;6213293;23;20078;-75
2024/02/25 08:45:01;;;;;;;3.27;1.60;;;6.10;99.90;;;;;;6213182;23;20485;-75
2024/02/25 08:47:27;;;;;;;1.83;1.40;;;6.40;99.90;;;;;;6212810;23;20020;-75
2024/02/25 08:49:53;;;;;;;2.00;1.20;;;6.70;99.90;;;;;;6214023;23;20012;-76
2024/02/25 08:52:19;;;;;;;2.30;1.37;;;7.00;99.90;;;;;;6213132;23;20431;-76
2024/02/25 08:54:45;;;;;;;3.30;1.43;;;7.20;99.90;;;;;;6212320;23;20001;-76
2024/02/25 08:57:12;;;;;;;4.70;2.73;;;7.50;99.90;;;;;;6213506;23;20067;-76
2024/02/25 08:59:37;;;;;;;4.00;1.40;;;7.70;99.90;;;;;;6211878;23;20005;-76
2024/02/25 09:02:07;;;;;;;1.93;1.23;;;7.90;99.90;;;;;;6213653;23;20043;-76
2024/02/25 09:04:32;;;;;;;4.10;1.43;;;8.00;99.90;;;;;;6213130;23;20023;-70
2024/02/25 09:06:59;;;;;;;6.03;2.87;;;8.20;99.90;;;;;;6212742;23;20411;-76
2024/02/25 09:09:26;;;;;;;3.37;1.30;;;8.30;99.90;;;;;;6213693;23;19997;-77
2024/02/25 09:11:52;;;;;;;3.37;1.60;;;8.50;99.90;;;;;;6214122;23;20001;-77
2024/02/25 09:14:17;;;;;;;2.47;1.30;;;8.60;99.90;;;;;;6213745;23;20054;-76
2024/02/25 09:16:43;;;;;;;2.30;1.30;;;8.80;99.90;;;;;;6212597;23;20015;-76
2024/02/25 09:19:09;;;;;;;15.43;10.77;;;9.00;99.90;;;;;;6213411;23;20007;-76
2024/02/25 09:21:35;;;;;;;3.43;1.60;;;9.00;99.90;;;;;;6212957;23;20079;-76
2024/02/25 09:24:01;;;;;;;5.30;1.50;;;9.20;99.90;;;;;;6212394;23;20087;-77
2024/02/25 09:26:27;;;;;;;2.53;1.40;;;9.40;99.90;;;;;;6213150;23;20447;-77
2024/02/25 09:28:52;;;;;;;4.40;2.40;;;9.40;99.90;;;;;;6212730;23;20019;-76
2024/02/25 09:31:18;;;;;;;7.30;5.40;;;9.50;99.90;;;;;;6212811;23;20107;-76
2024/02/25 09:33:45;;;;;;;3.23;2.10;;;9.60;99.90;;;;;;6213252;23;20020;-76
2024/02/25 09:36:11;;;;;;;3.90;1.60;;;9.70;99.90;;;;;;6213624;23;20001;-76
2024/02/25 09:38:36;;;;;;;4.57;3.17;;;9.80;99.90;;;;;;6212357;23;20135;-76
2024/02/25 09:41:03;;;;;;;1.73;1.30;;;10.00;99.90;;;;;;6212329;23;20039;-77
2024/02/25 09:43:28;;;;;;;2.17;1.00;;;10.00;99.90;;;;;;6213154;23;20012;-76
2024/02/25 09:45:56;;;;;;;2.07;0.93;;;10.00;99.90;;;;;;6212266;23;20340;-77
2024/02/25 09:48:24;;;;;;;1.83;1.30;;;10.00;99.90;;;;;;6212811;23;20047;-77
2024/02/25 09:50:51;;;;;;;1.57;1.00;;;10.10;99.90;;;;;;6213755;23;20000;-76
2024/02/25 09:53:17;;;;;;;2.20;1.07;;;10.20;99.90;;;;;;6213342;23;20076;-76
2024/02/25 09:55:43;;;;;;;3.20;1.10;;;10.30;99.90;;;;;;6212368;23;20000;-77
2024/02/25 09:58:09;;;;;;;1.47;1.00;;;10.40;99.90;;;;;;6212879;23;20571;-77
2024/02/25 10:00:35;;;;;;;1.30;0.70;;;10.50;99.90;;;;;;6213744;23;20004;-77
2024/02/25 10:03:00;;;;;;;1.93;0.90;;;10.40;99.90;;;;;;6213356;23;20013;-76
2024/02/25 10:05:26;;;;;;;2.00;0.90;;;10.50;99.90;;;;;;6212738;23;20020;-76
2024/02/25 10:08:11;;;;;;;0.73;0.70;;;10.50;99.90;;;;;;6213634;23;20004;-76
2024/02/25 10:10:39;;;;;;;2.40;0.77;;;10.70;99.90;;;;;;6212576;23;20327;-77
2024/02/25 10:13:05;;;;;;;2.47;1.07;;;10.60;99.90;;;;;;6213503;23;20005;-77
2024/02/25 10:15:31;;;;;;;1.60;0.90;;;10.70;99.90;;;;;;6211978;23;20036;-76
2024/02/25 10:17:56;;;;;;;1.23;0.60;;;10.80;99.90;;;;;;6213699;23;20001;-76
2024/02/25 10:20:22;;;;;;;0.73;0.60;;;10.80;99.90;;;;;;6212831;23;20075;-77
2024/02/25 10:23:04;;;;;;;1.10;0.70;;;10.90;99.90;;;;;;6212623;23;20071;-77
2024/02/25 10:25:29;;;;;;;2.07;1.13;;;10.80;99.90;;;;;;6211904;23;20039;-76
2024/02/25 10:28:11;;;;;;;1.30;0.70;;;10.80;99.90;;;;;;6213477;23;20001;-77
2024/02/25 10:30:36;;;;;;;1.17;0.70;;;10.70;99.90;;;;;;6212868;23;20031;-77
2024/02/25 10:33:15;;;;;;;1.23;0.90;;;10.80;99.90;;;;;;6213340;23;20415;-77
2024/02/25 10:35:42;;;;;;;0.50;0.50;;;10.90;99.90;;;;;;6211790;23;20013;-76
2024/02/25 10:38:12;;;;;;;2.13;0.83;;;10.80;99.90;;;;;;6213207;23;20005;-77
2024/02/25 10:40:38;;;;;;;1.57;0.70;;;10.90;99.90;;;;;;6213112;23;20009;-77
2024/02/25 10:43:04;;;;;;;2.77;0.73;;;10.90;99.90;;;;;;6213156;23;20007;-77
2024/02/25 10:45:32;;;;;;;4.22;1.08;;;10.90;99.90;;;;;;6212118;23;20336;-77
2024/02/25 10:47:58;;;;;;;1.08;0.60;;;11.00;99.90;;;;;;6213401;23;20058;-77
2024/02/25 10:50:25;;;;;;;3.33;1.10;;;11.10;99.90;;;;;;6212498;23;20055;-77
2024/02/25 10:52:54;;;;;;;3.30;0.75;;;11.20;99.90;;;;;;6212078;23;20005;-77
2024/02/25 10:55:21;;;;;;;1.70;0.70;;;11.40;99.90;;;;;;6212264;23;19907;-76
2024/02/25 10:57:47;;;;;;;;;;;11.60;99.90;;;;;;6212004;23;19903;-76
2024/02/25 11:00:13;;;;;;;;;;;11.70;99.90;;;;;;6213367;23;20082;-76
2024/02/25 11:02:40;;;;;;;;;;;11.80;99.90;;;;;;6212250;23;20013;-76
2024/02/25 11:05:06;;;;;;;;;;;11.90;99.90;;;;;;6211131;23;20020;-77
2024/02/25 11:07:31;;;;;;;;;;;12.00;99.90;;;;;;6211523;23;20521;-77
2024/02/25 11:09:56;;;;;;;;;;;12.10;99.90;;;;;;6211557;23;20020;-77
2024/02/25 11:12:25;;;;;;;;;;;12.10;99.90;;;;;;6211679;23;20051;-77
2024/02/25 11:14:53;;;;;;;;;;;12.30;99.90;;;;;;6211888;23;20098;-77
2024/02/25 11:17:24;;;;;;;;;;;12.50;99.90;;;;;;6212477;23;20027;-77
2024/02/25 11:20:11;;;;;;;;;;;12.50;99.90;;;;;;6213726;23;20320;-77
2024/02/25 11:22:37;;;;;;;;;;;12.40;99.90;;;;;;6211919;23;20023;-80
2024/02/25 11:25:02;;;;;;;;;;;12.50;99.90;;;;;;6212164;23;20058;-76
2024/02/25 11:27:28;;;;;;;;;;;12.50;99.90;;;;;;6213357;23;20081;-72
2024/02/25 11:30:12;;;;;;;;;;;12.60;99.90;;;;;;6211951;23;20008;-72
2024/02/25 11:32:40;;;;;;;;;;;12.50;99.90;;;;;;6212123;23;20022;-72
2024/02/25 11:35:06;;;;;;;;;;;12.60;99.90;;;;;;6211061;23;20004;-72
2024/02/25 11:37:32;;;;;;;;;;;12.60;99.90;;;;;;6211126;23;20000;-72
2024/02/25 11:39:57;;;;;;;;;;;12.80;99.90;;;;;;6211822;23;20007;-71
2024/02/25 11:42:23;;;;;;;;;;;12.90;99.90;;;;;;6212311;23;20000;-72
2024/02/25 11:44:48;;;;;;;;;;;12.90;99.90;;;;;;6211761;23;20016;-72
2024/02/25 11:47:14;;;;;;;;;;;12.90;99.90;;;;;;6211984;23;20004;-71
2024/02/25 11:49:39;;;;;;;;;;;12.90;99.90;;;;;;6212173;23;20035;-72
2024/02/25 11:52:05;;;;;;;;;;;12.80;99.90;;;;;;6212097;23;19899;-72
2024/02/25 11:54:30;;;;;;;;;;;12.80;99.90;;;;;;6210783;23;20028;-72
2024/02/25 11:56:56;;;;;;;;;;;12.80;99.90;;;;;;6212839;23;20425;-72
2024/02/25 11:59:22;;;;;;;;;;;12.80;99.90;;;;;;6209061;23;20008;-76
2024/02/25 12:01:48;;;;;;;;;;;12.90;99.90;;;;;;6211440;23;20015;-71
2024/02/25 12:04:14;;;;;;;;;;;13.00;99.90;;;;;;6211348;23;20074;-72
2024/02/25 12:06:39;;;;;;;;;;;13.10;99.90;;;;;;6211997;23;20010;-71
2024/02/25 12:09:05;;;;;;;;;;;13.20;99.90;;;;;;6211951;23;19900;-73
2024/02/25 12:11:32;;;;;;;;;;;13.20;99.90;;;;;;6213442;23;20391;-73
2024/02/25 12:14:04;;;;;;;;;;;13.40;99.90;;;;;;6213162;23;20011;-73
2024/02/25 12:16:30;;;;;;;;;;;13.30;99.90;;;;;;6212975;23;20016;-72
2024/02/25 12:18:57;;;;;;;;;;;13.50;99.90;;;;;;6213908;23;20050;-72
2024/02/25 12:21:23;;;;;;;;;;;13.50;99.90;;;;;;6213453;23;19904;-72
2024/02/25 12:23:48;;;;;;;;;;;13.40;99.90;;;;;;6212892;23;20083;-72
2024/02/25 12:26:14;;;;;;;;;;;13.50;99.90;;;;;;6211578;23;19942;-72
2024/02/25 12:28:40;;;;;;;;;;;13.40;99.90;;;;;;6213674;23;20019;-71
2024/02/25 12:31:05;;;;;;;;;;;13.60;99.90;;;;;;6213922;23;20086;-71
2024/02/25 12:33:31;;;;;;;;;;;13.60;99.90;;;;;;6212193;23;20000;-71
2024/02/25 12:35:57;;;;;;;;;;;13.80;99.90;;;;;;6212687;23;20466;-72
2024/02/25 12:38:22;;;;;;;;;;;13.70;99.90;;;;;;6185878;23;20009;-71
2024/02/25 12:40:50;;;;;;;;;;;13.70;99.90;;;;;;6213166;23;20030;-71
2024/02/25 12:43:16;;;;;;;;;;;13.70;99.90;;;;;;6212232;23;20016;-71
2024/02/25 12:45:43;;;;;;;;;;;13.60;99.90;;;;;;6212457;23;20386;-71
2024/02/25 12:48:08;;;;;;;;;;;13.60;99.90;;;;;;6211891;23;20507;-71
2024/02/25 12:50:34;;;;;;;;;;;13.60;99.90;;;;;;6212116;23;20005;-71
2024/02/25 12:53:02;;;;;;;;;;;13.30;99.90;;;;;;6212237;23;20223;-71
2024/02/25 12:55:27;;;;;;;;;;;13.10;99.90;;;;;;6211437;23;20096;-71
2024/02/25 12:57:53;;;;;;;;;;;12.90;99.90;;;;;;6213284;23;20222;-71
2024/02/25 13:00:18;;;;;;;;;;;12.70;99.90;;;;;;6212342;23;20031;-70
2024/02/25 13:02:44;;;;;;;;;;;12.80;99.90;;;;;;6212016;23;20076;-70